Date,TemperatureHighF,TemperatureAvgF,TemperatureLowF,DewpointHighF,DewpointAvgF,DewpointLowF,HumidityHigh,HumidityAvg,HumidityLow,PressureMaxIn,PressureMinIn,WindSpeedMaxMPH,WindSpeedAvgMPH,GustSpeedMaxMPH,PrecipitationSumIn
2013-5-1,83.8,54.3,37.0,47.2,33.4,25.4,65,47,27,30.48,30.36,6,0,0,0.00
2013-5-2,73.8,54.3,42.6,45.1,36.9,30.3,72,53,33,30.50,30.36,9,0,0,0.00
2013-5-3,79.6,50.8,37.9,50.3,37.4,29.6,77,61,36,30.52,30.38,8,1,0,0.00
2013-5-4,78.8,51.9,40.1,46.6,38.1,29.9,81,61,30,30.38,30.28,6,1,0,0.00
2013-5-5,81.0,49.7,32.7,48.0,35.0,25.7,77,59,31,30.32,30.23,5,0,0,0.00
2013-5-6,87.2,53.2,34.7,48.3,37.6,27.9,78,58,25,30.27,30.14,7,0,0,0.00
2013-5-7,92.7,61.2,42.4,54.5,45.5,36.1,80,59,27,30.18,30.10,9,0,0,0.00
2013-5-8,68.4,60.5,50.9,60.0,53.1,44.3,85,77,66,30.25,30.07,9,1,0,0.09
2013-5-9,74.7,58.2,54.3,62.6,53.8,50.8,89,86,66,30.07,29.91,2,0,0,0.09
2013-5-10,75.8,62.7,54.4,58.9,54.5,50.9,88,76,54,29.99,29.92,3,0,0,0.00
2013-5-11,63.3,59.4,55.9,59.1,54.9,50.8,89,85,78,29.92,29.71,9,1,0,0.18
2013-5-12,65.1,54.6,42.2,53.6,47.2,30.3,90,77,48,29.79,29.60,7,1,0,0.01
2013-5-13,55.4,44.2,37.1,34.1,31.5,28.9,76,62,44,30.03,29.79,9,2,0,0.00
2013-5-14,67.7,46.1,35.7,36.7,31.8,28.8,76,59,31,30.06,29.99,10,1,0,0.00
2013-5-15,63.0,48.1,35.1,46.0,37.5,28.0,86,68,43,30.04,29.67,7,1,0,0.07
2013-5-16,79.5,58.4,43.3,50.4,43.6,38.5,88,62,31,29.85,29.63,14,2,0,0.00
2013-5-17,75.6,54.2,44.6,43.6,38.3,35.1,70,56,32,30.22,29.85,12,2,0,0.00
2013-5-18,73.6,56.3,41.5,49.7,41.1,33.9,77,58,37,30.31,30.21,8,1,0,0.00
2013-5-19,65.8,55.2,47.8,52.7,46.5,41.6,86,73,59,30.35,30.21,6,0,0,0.06
2013-5-20,75.5,61.7,52.3,62.9,55.6,48.3,89,81,64,30.20,29.97,6,0,0,0.02
2013-5-21,69.4,58.1,47.7,63.4,53.4,44.0,88,85,72,30.08,29.92,7,1,0,0.14
2013-5-22,58.5,52.5,48.2,55.2,49.3,44.8,90,89,88,30.03,29.89,6,0,0,0.40
2013-5-23,67.2,58.0,50.2,64.2,55.2,47.1,91,90,89,29.93,29.81,6,1,0,0.13
2013-5-24,66.2,58.0,44.2,63.5,54.3,40.9,91,87,76,29.86,29.67,8,2,0,0.22
2013-5-25,45.4,42.1,34.3,42.6,39.3,31.2,90,90,88,29.85,29.73,8,2,0,0.20
2013-5-26,52.6,42.8,34.7,43.1,36.9,31.8,91,80,63,30.06,29.68,12,3,0,0.08
2013-5-27,79.5,51.9,35.9,49.1,39.0,32.1,87,64,32,30.18,30.06,8,2,0,0.00
2013-5-28,74.8,55.5,39.7,50.8,43.1,34.1,83,64,43,30.25,30.17,5,0,0,0.00
2013-5-29,59.9,55.5,50.4,56.6,51.3,42.0,90,86,73,30.17,30.01,1,0,0,0.12
2013-5-30,88.6,68.1,55.4,68.2,60.8,52.5,90,79,50,30.10,30.02,6,0,0,0.00
2013-5-31,99.1,74.2,60.8,70.8,63.0,56.9,88,70,39,30.12,29.99,6,0,0,0.00